createdAt,value
2018-02-06T00:00:17.027Z,19.80
2018-02-06T00:01:17.023Z,19.10
2018-02-06T00:02:17.021Z,19.90
2018-02-06T00:03:17.019Z,19.60
2018-02-06T00:04:17.016Z,20.20
2018-02-06T00:05:17.021Z,20.10
2018-02-06T00:06:17.018Z,19.80
2018-02-06T00:07:17.013Z,20.10
2018-02-06T00:08:17.011Z,20.60
2018-02-06T00:09:17.015Z,19.80
2018-02-06T00:10:17.016Z,20.50
2018-02-06T00:11:17.010Z,19.50
2018-02-06T00:12:17.010Z,19.80
2018-02-06T00:13:17.013Z,20.20
2018-02-06T00:14:17.013Z,19.30
2018-02-06T00:15:17.007Z,19.10
2018-02-06T00:16:17.011Z,19.60
2018-02-06T00:17:17.008Z,19.80
2018-02-06T00:18:17.008Z,19.70
2018-02-06T00:19:17.003Z,20.00
2018-02-06T00:20:17.005Z,19.80
2018-02-06T00:21:17.003Z,19.00
2018-02-06T00:22:17.003Z,19.00
2018-02-06T00:23:16.998Z,19.40
2018-02-06T00:24:17.003Z,19.40
2018-02-06T00:25:16.999Z,19.80
2018-02-06T00:26:16.997Z,19.40
2018-02-06T00:27:17.020Z,19.90
2018-02-06T00:28:16.994Z,19.80
2018-02-06T00:29:16.996Z,18.70
2018-02-06T00:30:16.997Z,18.50
2018-02-06T00:31:16.990Z,19.20
2018-02-06T00:32:16.990Z,19.60
2018-02-06T00:33:16.997Z,20.10
2018-02-06T00:34:16.987Z,19.40
2018-02-06T00:35:16.989Z,20.00
2018-02-06T00:36:16.990Z,20.30
2018-02-06T00:37:16.986Z,19.30
2018-02-06T00:38:16.996Z,19.70
2018-02-06T00:39:17.005Z,20.50
2018-02-06T00:40:16.981Z,20.50
2018-02-06T00:41:16.984Z,20.40
2018-02-06T00:42:16.983Z,20.30
2018-02-06T00:43:16.975Z,20.90
2018-02-06T00:44:16.979Z,20.70
2018-02-06T00:45:16.978Z,21.20
2018-02-06T00:46:16.978Z,20.40
2018-02-06T00:47:16.973Z,18.80
2018-02-06T00:48:16.975Z,21.00
2018-02-06T00:49:16.972Z,20.20
2018-02-06T00:50:17.003Z,19.90
2018-02-06T00:51:16.969Z,19.40
2018-02-06T00:52:16.973Z,20.00
2018-02-06T00:53:16.965Z,20.50
2018-02-06T00:54:16.974Z,20.20
2018-02-06T00:55:16.964Z,20.20
2018-02-06T00:56:16.968Z,21.10
2018-02-06T00:57:16.959Z,20.90
2018-02-06T00:58:16.963Z,20.20
2018-02-06T00:59:16.963Z,20.70
2018-02-06T01:00:16.956Z,21.50
2018-02-06T01:01:16.963Z,20.10
2018-02-06T01:02:16.969Z,20.00
2018-02-06T01:03:16.958Z,21.30
2018-02-06T01:04:16.962Z,20.40
2018-02-06T01:05:16.961Z,20.40
2018-02-06T01:06:16.958Z,19.70
2018-02-06T01:07:16.952Z,20.60
2018-02-06T01:08:16.953Z,20.10
2018-02-06T01:09:16.955Z,20.60
2018-02-06T01:10:16.952Z,20.10
2018-02-06T01:11:16.947Z,21.00
2018-02-06T01:12:16.942Z,20.10
2018-02-06T01:13:16.948Z,20.90
2018-02-06T01:14:16.946Z,21.10
2018-02-06T01:15:16.950Z,20.80
2018-02-06T01:16:16.944Z,20.80
2018-02-06T01:17:16.941Z,19.90
2018-02-06T01:18:16.940Z,19.80
2018-02-06T01:19:16.940Z,19.50
2018-02-06T01:20:16.939Z,20.30
2018-02-06T01:21:16.935Z,20.20
2018-02-06T01:22:16.938Z,20.80
2018-02-06T01:23:16.934Z,20.50
2018-02-06T01:24:16.935Z,19.70
2018-02-06T01:25:16.933Z,21.20
2018-02-06T01:26:16.932Z,19.90
2018-02-06T01:27:16.926Z,19.50
2018-02-06T01:28:16.922Z,20.40
2018-02-06T01:29:16.938Z,20.40
2018-02-06T01:30:16.933Z,20.40
2018-02-06T01:31:16.929Z,20.30
2018-02-06T01:32:16.928Z,20.10
2018-02-06T01:33:16.918Z,20.80
2018-02-06T01:34:16.918Z,19.50
2018-02-06T01:35:16.918Z,20.00
2018-02-06T01:36:16.920Z,21.10
2018-02-06T01:37:16.913Z,20.00
2018-02-06T01:38:16.911Z,20.40
2018-02-06T01:39:16.917Z,20.60
2018-02-06T01:40:16.908Z,20.00
2018-02-06T01:41:16.917Z,20.20
2018-02-06T01:42:16.916Z,20.60
2018-02-06T01:43:16.911Z,21.30
2018-02-06T01:44:16.909Z,20.20
2018-02-06T01:45:16.911Z,21.30
2018-02-06T01:46:16.904Z,20.60
2018-02-06T01:47:16.902Z,20.40
2018-02-06T01:48:16.903Z,20.20
2018-02-06T01:49:16.903Z,20.40
2018-02-06T01:50:16.898Z,19.80
2018-02-06T01:51:16.929Z,20.10
2018-02-06T01:52:16.894Z,21.30
2018-02-06T01:53:16.904Z,19.60
2018-02-06T01:54:16.897Z,21.20
2018-02-06T01:55:16.893Z,19.60
2018-02-06T01:56:16.893Z,20.40
2018-02-06T01:57:16.897Z,20.30
2018-02-06T01:58:16.886Z,18.80
2018-02-06T01:59:16.888Z,20.80
2018-02-06T02:00:16.885Z,21.10
2018-02-06T02:01:16.890Z,20.40
2018-02-06T02:02:16.878Z,20.40
2018-02-06T02:03:16.882Z,20.10
2018-02-06T02:04:16.882Z,20.70
2018-02-06T02:05:16.875Z,20.90
2018-02-06T02:06:16.875Z,20.50
2018-02-06T02:07:16.888Z,19.60
2018-02-06T02:08:16.886Z,20.20
2018-02-06T02:09:16.928Z,20.00
2018-02-06T02:10:16.875Z,20.50
2018-02-06T02:11:16.873Z,19.30
2018-02-06T02:12:16.872Z,19.50
2018-02-06T02:13:16.874Z,19.40
2018-02-06T02:14:16.863Z,19.90
2018-02-06T02:15:16.867Z,19.90
2018-02-06T02:16:16.865Z,20.40
2018-02-06T02:17:16.865Z,20.00
2018-02-06T02:18:16.863Z,20.50
2018-02-06T02:19:16.862Z,20.50
2018-02-06T02:20:16.859Z,20.40
2018-02-06T02:21:16.872Z,20.80
2018-02-06T02:22:16.857Z,20.60
2018-02-06T02:23:16.854Z,20.70
2018-02-06T02:24:16.856Z,21.50
2018-02-06T02:25:16.854Z,21.00
2018-02-06T02:26:16.853Z,21.20
2018-02-06T02:27:16.848Z,21.30
2018-02-06T02:28:16.852Z,21.40
2018-02-06T02:29:16.846Z,21.30
2018-02-06T02:30:16.871Z,21.50
2018-02-06T02:31:16.848Z,20.20
2018-02-06T02:32:16.843Z,21.40
2018-02-06T02:33:16.839Z,21.50
2018-02-06T02:34:16.841Z,21.90
2018-02-06T02:35:16.831Z,21.30
2018-02-06T02:36:16.840Z,21.20
2018-02-06T02:37:16.834Z,21.30
2018-02-06T02:38:16.835Z,21.40
2018-02-06T02:39:16.826Z,21.80
2018-02-06T02:40:16.831Z,21.10
2018-02-06T02:41:16.830Z,22.90
2018-02-06T04:39:16.644Z,21.90
2018-02-06T04:40:16.646Z,22.00
2018-02-06T04:41:16.655Z,22.50
2018-02-06T04:42:16.639Z,22.50
2018-02-06T04:43:16.638Z,22.30
2018-02-06T04:44:16.646Z,21.80
2018-02-06T04:45:16.637Z,22.60
2018-02-06T04:46:16.631Z,22.00
2018-02-06T04:47:16.631Z,22.80
2018-02-06T04:48:16.637Z,23.80
2018-02-06T04:49:16.623Z,21.10
2018-02-06T04:50:16.628Z,22.00
2018-02-06T04:51:16.619Z,21.90
2018-02-06T04:52:16.620Z,22.10
2018-02-06T04:53:16.623Z,21.50
2018-02-06T04:54:16.632Z,22.10
2018-02-06T04:55:16.614Z,22.00
2018-02-06T04:56:16.612Z,21.90
2018-02-06T04:57:16.618Z,22.50
2018-02-06T04:58:16.637Z,21.00
2018-02-06T04:59:16.614Z,20.90
2018-02-06T05:00:16.610Z,22.70
2018-02-06T05:01:16.609Z,21.40
2018-02-06T05:02:16.607Z,21.60
2018-02-06T05:03:16.612Z,21.90
2018-02-06T05:04:16.598Z,21.00
2018-02-06T05:05:16.603Z,22.80
2018-02-06T05:06:16.606Z,21.10
2018-02-06T05:07:16.613Z,21.40
2018-02-06T05:08:16.598Z,21.80
2018-02-06T05:09:16.599Z,22.20
2018-02-06T05:10:16.597Z,21.80
2018-02-06T05:11:16.590Z,21.50
2018-02-06T05:12:16.589Z,21.50
2018-02-06T05:13:16.595Z,21.30
2018-02-06T05:14:16.581Z,21.70
2018-02-06T05:15:16.581Z,22.30
2018-02-06T05:16:16.585Z,20.80
2018-02-06T05:17:16.580Z,21.90
2018-02-06T05:18:16.585Z,21.50
2018-02-06T05:19:16.579Z,22.30
2018-02-06T05:20:16.643Z,21.20
2018-02-06T05:21:16.574Z,21.90
2018-02-06T05:22:16.580Z,21.80
2018-02-06T05:23:16.571Z,21.50
2018-02-06T05:24:16.569Z,21.00
2018-02-06T05:25:16.572Z,21.80
2018-02-06T05:26:16.570Z,21.00
2018-02-06T05:27:16.564Z,20.60
2018-02-06T05:28:16.560Z,21.40
2018-02-06T05:29:16.564Z,22.50
2018-02-06T05:30:16.574Z,21.40
2018-02-06T05:31:16.579Z,21.00
2018-02-06T05:32:16.570Z,21.90
2018-02-06T05:33:16.564Z,22.50
2018-02-06T05:34:16.560Z,21.90
2018-02-06T05:35:16.554Z,21.80
2018-02-06T05:36:16.550Z,21.60
2018-02-06T05:37:16.554Z,21.70
2018-02-06T05:38:16.556Z,22.20
2018-02-06T05:39:16.540Z,21.00
2018-02-06T05:40:16.546Z,20.80
2018-02-06T05:41:16.541Z,21.30
2018-02-06T05:42:16.555Z,20.80
2018-02-06T05:43:16.538Z,22.10
2018-02-06T05:44:16.541Z,22.60
2018-02-06T05:45:16.534Z,21.80
2018-02-06T05:46:16.538Z,20.70
2018-02-06T05:47:16.544Z,21.20
2018-02-06T05:48:16.540Z,21.30
2018-02-06T05:49:16.527Z,22.40
2018-02-06T05:50:16.533Z,20.90
2018-02-06T05:51:16.535Z,21.50
2018-02-06T05:52:16.517Z,21.30
2018-02-06T05:53:16.524Z,21.50
2018-02-06T05:54:16.529Z,21.60
2018-02-06T05:55:17.078Z,21.40
2018-02-06T05:56:16.542Z,21.70
2018-02-06T05:57:16.518Z,21.60
2018-02-06T05:58:16.515Z,21.90
2018-02-06T05:59:16.512Z,22.40
2018-02-06T06:00:16.505Z,22.20
2018-02-06T06:01:16.511Z,21.50
2018-02-06T06:02:16.511Z,20.90
2018-02-06T06:03:16.505Z,20.70
2018-02-06T06:04:16.504Z,21.80
2018-02-06T06:05:16.504Z,22.60
2018-02-06T06:06:16.500Z,22.00
2018-02-06T06:07:16.496Z,20.00
2018-02-06T06:08:16.497Z,20.60
2018-02-06T06:09:16.497Z,20.60
2018-02-06T06:10:16.493Z,20.60
2018-02-06T06:11:16.492Z,20.80
2018-02-06T06:12:16.493Z,21.00
2018-02-06T06:13:16.487Z,19.40
2018-02-06T06:14:16.485Z,20.30
2018-02-06T06:15:16.488Z,21.00
2018-02-06T06:16:16.486Z,20.40
2018-02-06T06:17:16.478Z,21.30
2018-02-06T06:18:16.482Z,21.30
2018-02-06T06:19:16.477Z,19.80
2018-02-06T06:20:16.478Z,20.50
2018-02-06T06:21:16.475Z,21.00
2018-02-06T06:22:16.478Z,21.00
2018-02-06T06:23:16.477Z,21.20
2018-02-06T06:24:16.473Z,20.10
2018-02-06T06:25:16.469Z,20.00
2018-02-06T06:26:16.467Z,20.10
2018-02-06T06:27:16.462Z,20.50
2018-02-06T06:28:16.464Z,20.90
2018-02-06T06:29:16.463Z,21.70
2018-02-06T06:30:16.460Z,20.70
2018-02-06T06:31:16.473Z,19.70
2018-02-06T06:32:16.459Z,21.70
2018-02-06T06:33:16.453Z,20.20
2018-02-06T06:34:16.452Z,20.00
2018-02-06T06:35:16.451Z,22.00
2018-02-06T06:36:16.451Z,21.10
2018-02-06T06:37:16.448Z,19.80
2018-02-06T06:38:16.445Z,20.30
2018-02-06T06:39:16.449Z,20.50
2018-02-06T06:40:16.444Z,20.40
2018-02-06T06:41:16.439Z,20.40
2018-02-06T06:42:16.439Z,19.60
2018-02-06T06:43:16.439Z,20.30
2018-02-06T06:44:16.434Z,19.50
2018-02-06T06:45:16.441Z,20.80
2018-02-06T06:46:16.435Z,21.00
2018-02-06T06:47:16.433Z,20.80
2018-02-06T06:48:16.427Z,20.40
2018-02-06T06:49:16.430Z,20.80
2018-02-06T06:50:16.424Z,20.20
2018-02-06T06:51:16.426Z,20.20
2018-02-06T06:52:16.423Z,20.40
2018-02-06T06:53:16.424Z,20.10
2018-02-06T06:54:16.417Z,19.80
2018-02-06T06:55:16.415Z,19.50
2018-02-06T06:56:16.417Z,20.90
2018-02-06T06:57:16.411Z,21.50
2018-02-06T06:58:16.414Z,20.50
2018-02-06T06:59:16.407Z,19.00
2018-02-06T07:00:16.412Z,20.50
2018-02-06T07:01:16.405Z,19.60
2018-02-06T07:02:16.408Z,20.10
2018-02-06T07:03:16.399Z,21.60
2018-02-06T07:04:16.403Z,20.10
2018-02-06T07:05:16.398Z,20.20
2018-02-06T07:06:16.396Z,20.10
2018-02-06T07:07:16.397Z,20.10
2018-02-06T07:08:16.393Z,20.10
2018-02-06T07:09:16.395Z,21.20
2018-02-06T07:10:16.391Z,19.80
2018-02-06T07:11:16.388Z,19.50
2018-02-06T07:12:16.386Z,20.20
2018-02-06T07:13:16.387Z,20.30
2018-02-06T07:14:16.386Z,20.30
2018-02-06T07:15:16.381Z,20.30
2018-02-06T07:16:16.382Z,20.10
2018-02-06T07:17:16.390Z,21.10
2018-02-06T07:18:16.377Z,19.10
2018-02-06T07:19:16.369Z,20.20
2018-02-06T07:20:16.376Z,20.10
2018-02-06T07:21:16.371Z,20.20
2018-02-06T07:22:16.452Z,20.10
2018-02-06T07:23:16.370Z,19.50
2018-02-06T07:24:16.373Z,20.30
2018-02-06T07:25:16.363Z,20.10
2018-02-06T07:26:16.368Z,20.00
2018-02-06T07:27:16.358Z,19.70
2018-02-06T07:28:16.384Z,19.40
2018-02-06T07:29:16.351Z,19.30
2018-02-06T07:30:16.358Z,19.70
2018-02-06T07:31:16.358Z,19.80
2018-02-06T07:32:16.356Z,19.30
2018-02-06T07:33:16.350Z,19.10
2018-02-06T07:34:16.347Z,19.80
2018-02-06T07:35:16.349Z,19.40
2018-02-06T07:36:16.348Z,18.90
2018-02-06T07:37:16.343Z,19.30
2018-02-06T07:38:16.342Z,20.20
2018-02-06T07:39:16.346Z,19.20
2018-02-06T07:40:16.344Z,19.10
2018-02-06T07:41:16.335Z,19.00
2018-02-06T07:42:16.336Z,19.40
2018-02-06T07:43:16.372Z,19.50
2018-02-06T07:44:16.336Z,19.70
2018-02-06T07:45:16.328Z,18.90
2018-02-06T07:46:16.333Z,19.20
2018-02-06T07:47:16.335Z,19.90
2018-02-06T07:48:16.336Z,19.00
2018-02-06T07:49:16.328Z,19.20
2018-02-06T07:50:16.324Z,18.60
2018-02-06T07:51:16.325Z,18.90
2018-02-06T07:52:16.371Z,17.80
2018-02-06T07:53:16.326Z,18.50
2018-02-06T07:54:16.318Z,19.80
2018-02-06T07:55:16.317Z,19.30
2018-02-06T07:56:16.319Z,20.50
2018-02-06T07:57:16.313Z,20.30
2018-02-06T07:58:16.312Z,19.00
2018-02-06T07:59:16.313Z,19.10
2018-02-06T08:00:16.313Z,18.50
2018-02-06T08:01:16.306Z,19.00
2018-02-06T08:02:16.311Z,19.20
2018-02-06T08:03:16.307Z,18.60
2018-02-06T08:04:16.301Z,17.70
2018-02-06T08:05:16.306Z,18.00
2018-02-06T08:06:16.301Z,18.60
2018-02-06T08:07:16.305Z,17.80
2018-02-06T08:08:16.297Z,18.30
2018-02-06T08:09:16.298Z,20.00
2018-02-06T08:10:16.306Z,17.90
2018-02-06T08:11:16.295Z,17.80
2018-02-06T08:12:16.291Z,18.30
2018-02-06T08:13:16.294Z,18.50
2018-02-06T08:14:16.289Z,17.70
2018-02-06T08:15:16.290Z,18.30
2018-02-06T08:16:16.305Z,18.70
2018-02-06T08:17:17.012Z,17.60
2018-02-06T08:18:16.288Z,17.50
2018-02-06T08:19:16.282Z,17.30
2018-02-06T08:20:16.282Z,17.20
2018-02-06T08:21:16.281Z,16.90
2018-02-06T08:22:16.285Z,16.80
2018-02-06T08:23:16.302Z,17.70
2018-02-06T08:24:16.276Z,18.50
2018-02-06T08:25:16.279Z,16.90
2018-02-06T08:26:16.278Z,16.80
2018-02-06T08:27:16.272Z,17.50
2018-02-06T08:28:16.276Z,17.10
2018-02-06T08:29:16.272Z,17.20
2018-02-06T08:30:16.275Z,17.10
2018-02-06T08:31:16.298Z,17.20
2018-02-06T08:32:16.272Z,17.00
2018-02-06T08:33:16.269Z,16.90
2018-02-06T08:34:16.268Z,17.50
2018-02-06T08:35:16.269Z,17.00
2018-02-06T08:36:16.273Z,16.50
2018-02-06T08:37:16.266Z,16.50
2018-02-06T08:38:16.262Z,17.00
2018-02-06T08:39:16.263Z,16.00
2018-02-06T08:40:16.271Z,15.40
2018-02-06T08:41:16.260Z,15.80
2018-02-06T08:42:16.266Z,15.70
2018-02-06T08:43:16.270Z,15.80
2018-02-06T08:44:16.265Z,14.80
2018-02-06T08:45:16.272Z,14.10
2018-02-06T08:46:16.276Z,14.40
2018-02-06T08:47:16.274Z,14.30
2018-02-06T08:48:16.278Z,14.20
2018-02-06T08:49:16.286Z,14.60
2018-02-06T08:50:16.282Z,15.10
2018-02-06T08:51:16.290Z,14.20
2018-02-06T08:52:16.289Z,13.80
2018-02-06T08:53:16.294Z,13.60
2018-02-06T08:54:16.299Z,13.40
2018-02-06T08:55:16.309Z,13.70
2018-02-06T08:56:16.313Z,14.10
2018-02-06T08:57:16.319Z,13.90
2018-02-06T08:58:16.323Z,14.20
2018-02-06T08:59:16.323Z,14.30
2018-02-06T09:00:16.330Z,15.40
2018-02-06T09:01:16.337Z,15.30
2018-02-06T09:02:16.339Z,14.40
2018-02-06T09:03:16.342Z,14.40
2018-02-06T09:04:16.349Z,15.10
2018-02-06T09:05:16.354Z,14.70
2018-02-06T09:06:16.358Z,14.70
2018-02-06T09:07:16.357Z,15.40
2018-02-06T09:08:16.366Z,14.50
2018-02-06T09:09:16.370Z,15.50
2018-02-06T09:10:16.379Z,15.00
2018-02-06T09:11:16.375Z,14.30
2018-02-06T09:12:16.394Z,15.30
2018-02-06T09:13:16.380Z,15.50
2018-02-06T09:14:16.384Z,14.40
2018-02-06T09:15:16.390Z,14.70
2018-02-06T09:16:16.389Z,15.00
2018-02-06T09:17:16.394Z,14.30
2018-02-06T09:18:16.396Z,15.60
2018-02-06T09:19:16.410Z,15.70
2018-02-06T09:20:16.405Z,15.20
2018-02-06T09:21:16.407Z,15.10
2018-02-06T09:22:16.409Z,14.80
2018-02-06T09:23:16.411Z,14.80
2018-02-06T09:24:16.410Z,15.20
2018-02-06T09:25:16.419Z,15.00
2018-02-06T09:26:16.417Z,15.70
2018-02-06T09:27:16.421Z,15.00
2018-02-06T09:28:16.424Z,16.40
2018-02-06T09:29:16.427Z,15.10
2018-02-06T09:30:16.429Z,15.70
2018-02-06T09:31:16.427Z,15.10
2018-02-06T09:32:16.433Z,15.20
2018-02-06T09:33:16.434Z,16.10
2018-02-06T09:34:16.444Z,15.10
2018-02-06T09:35:16.435Z,16.60
2018-02-06T09:36:16.441Z,15.40
2018-02-06T09:37:16.445Z,15.60
2018-02-06T09:38:16.454Z,15.20
2018-02-06T09:39:16.446Z,15.00
2018-02-06T09:40:16.452Z,16.00
2018-02-06T09:41:16.453Z,15.30
2018-02-06T09:42:16.459Z,15.40
2018-02-06T09:43:16.462Z,15.40
2018-02-06T09:44:16.462Z,14.80
2018-02-06T09:45:16.468Z,14.90
2018-02-06T09:46:16.475Z,14.40
2018-02-06T09:47:16.469Z,15.00
2018-02-06T09:48:16.471Z,15.90
2018-02-06T09:49:16.480Z,15.60
2018-02-06T09:50:16.482Z,16.60
2018-02-06T09:51:16.482Z,14.90
2018-02-06T09:52:16.487Z,15.70
2018-02-06T09:53:16.516Z,14.40
2018-02-06T09:54:16.495Z,14.80
2018-02-06T09:55:16.498Z,14.90
2018-02-06T09:56:16.498Z,15.10
2018-02-06T09:57:16.501Z,15.40
2018-02-06T09:58:16.510Z,15.50
2018-02-06T09:59:16.648Z,14.50
2018-02-06T10:00:16.512Z,14.50
2018-02-06T10:01:16.520Z,14.50
2018-02-06T10:02:16.526Z,14.80
2018-02-06T10:03:16.520Z,14.90
2018-02-06T10:04:16.525Z,14.70
2018-02-06T10:05:16.532Z,14.00
2018-02-06T10:06:16.538Z,14.20
2018-02-06T10:07:16.533Z,15.10
2018-02-06T10:08:16.543Z,14.80
2018-02-06T10:09:16.544Z,15.00
2018-02-06T10:10:16.549Z,15.40
2018-02-06T10:11:16.557Z,16.30
2018-02-06T10:12:16.555Z,15.60
2018-02-06T10:13:16.561Z,15.80
2018-02-06T10:14:16.554Z,15.50
2018-02-06T10:15:16.567Z,15.20
2018-02-06T10:16:16.564Z,15.70
2018-02-06T10:17:16.580Z,16.70
2018-02-06T10:18:16.573Z,15.60
2018-02-06T10:19:16.576Z,15.80
2018-02-06T10:20:16.580Z,15.10
2018-02-06T10:21:16.587Z,15.90
2018-02-06T10:22:16.585Z,16.50
2018-02-06T10:23:16.590Z,16.30
2018-02-06T10:24:16.589Z,15.40
2018-02-06T10:25:16.596Z,14.90
2018-02-06T10:26:16.594Z,17.00
2018-02-06T10:27:16.600Z,16.70
2018-02-06T10:28:16.597Z,16.00
2018-02-06T10:29:16.599Z,15.70
2018-02-06T10:30:16.602Z,15.60
2018-02-06T10:31:16.609Z,15.30
2018-02-06T10:32:16.616Z,15.50
2018-02-06T10:33:16.613Z,14.90
2018-02-06T10:34:16.614Z,16.50
2018-02-06T10:35:16.619Z,16.50
2018-02-06T10:36:16.623Z,16.40
2018-02-06T10:37:16.621Z,16.40
2018-02-06T10:38:16.624Z,16.10
2018-02-06T10:39:16.628Z,16.10
2018-02-06T10:40:16.633Z,16.60
2018-02-06T10:41:16.630Z,14.90
2018-02-06T10:42:16.648Z,15.60
2018-02-06T10:43:16.644Z,15.80
2018-02-06T10:44:16.644Z,16.30
2018-02-06T10:45:16.644Z,16.00
2018-02-06T10:46:17.541Z,16.20
2018-02-06T10:47:16.646Z,16.80
2018-02-06T10:48:16.649Z,16.40
2018-02-06T10:49:16.659Z,16.90
2018-02-06T10:50:16.652Z,16.80
2018-02-06T10:51:16.657Z,15.80
2018-02-06T10:52:16.662Z,15.90
2018-02-06T10:53:16.666Z,16.70
2018-02-06T10:54:16.665Z,16.50
2018-02-06T10:55:16.671Z,16.10
2018-02-06T10:56:17.469Z,16.10
2018-02-06T10:57:16.677Z,15.70
2018-02-06T10:58:16.678Z,16.80
2018-02-06T10:59:16.677Z,16.50
2018-02-06T11:00:16.682Z,16.50
2018-02-06T11:01:16.683Z,16.80
2018-02-06T11:02:16.687Z,16.50
2018-02-06T11:03:16.687Z,15.40
2018-02-06T11:04:16.694Z,17.20
2018-02-06T11:05:16.694Z,17.10
2018-02-06T11:06:16.697Z,15.00
2018-02-06T11:07:16.694Z,16.40
2018-02-06T11:08:16.703Z,16.00
2018-02-06T11:09:16.703Z,16.40
2018-02-06T11:10:16.709Z,16.70
2018-02-06T11:11:16.706Z,16.30
2018-02-06T11:12:16.729Z,16.80
2018-02-06T11:13:16.712Z,16.30
2018-02-06T11:14:16.718Z,15.60
2018-02-06T11:15:16.722Z,16.70
2018-02-06T11:16:16.726Z,15.50
2018-02-06T11:17:16.728Z,15.50
2018-02-06T11:18:16.729Z,16.20
2018-02-06T11:19:16.735Z,15.40
2018-02-06T11:20:16.738Z,14.60
2018-02-06T11:21:16.740Z,15.90
2018-02-06T11:22:16.739Z,15.40
2018-02-06T11:23:16.746Z,13.80
2018-02-06T11:24:16.754Z,14.90
2018-02-06T11:25:16.751Z,14.90
2018-02-06T11:26:16.753Z,15.70
2018-02-06T11:27:16.755Z,14.20
2018-02-06T11:28:16.759Z,15.30
2018-02-06T11:29:16.757Z,15.90
2018-02-06T11:30:16.763Z,15.00
2018-02-06T11:31:16.768Z,15.30
2018-02-06T11:32:16.773Z,14.60
2018-02-06T11:33:16.775Z,15.00
2018-02-06T11:34:16.779Z,15.80
2018-02-06T11:35:16.780Z,15.20
2018-02-06T11:36:16.778Z,16.00
2018-02-06T11:37:16.786Z,23.30
2018-02-06T11:38:16.811Z,15.10
2018-02-06T11:39:16.800Z,14.80
2018-02-06T11:40:16.793Z,16.00
2018-02-06T11:41:16.821Z,16.30
2018-02-06T11:42:16.798Z,15.80
2018-02-06T11:43:16.803Z,15.70
2018-02-06T11:44:16.805Z,15.60
2018-02-06T11:45:16.810Z,15.30
2018-02-06T11:46:16.811Z,14.80
2018-02-06T11:47:16.809Z,15.70
2018-02-06T11:48:16.815Z,15.30
2018-02-06T11:49:16.820Z,14.80
2018-02-06T11:50:16.824Z,15.90
2018-02-06T11:51:16.822Z,15.70
2018-02-06T11:52:16.828Z,16.90
2018-02-06T11:53:16.823Z,15.10
2018-02-06T11:54:16.828Z,14.90
2018-02-06T11:55:16.828Z,15.20
2018-02-06T11:56:16.830Z,15.40
2018-02-06T11:57:16.837Z,16.40
2018-02-06T11:58:16.885Z,14.40
2018-02-06T11:59:16.843Z,15.60
2018-02-06T12:00:16.842Z,14.90
2018-02-06T12:01:16.850Z,14.90
2018-02-06T12:02:16.846Z,15.30
2018-02-06T12:03:16.849Z,16.50
2018-02-06T12:04:16.860Z,16.60
2018-02-06T12:05:16.854Z,16.10
2018-02-06T12:06:16.857Z,15.30
2018-02-06T12:07:16.863Z,17.50
2018-02-06T12:08:16.866Z,16.50
2018-02-06T12:09:16.866Z,15.90
2018-02-06T12:10:16.876Z,17.30
2018-02-06T12:11:16.869Z,14.10
2018-02-06T12:12:16.882Z,14.20
2018-02-06T12:13:16.873Z,13.80
2018-02-06T12:14:16.882Z,14.10
2018-02-06T12:15:16.878Z,14.40
2018-02-06T12:16:16.888Z,15.20
2018-02-06T12:17:16.888Z,13.80
2018-02-06T12:18:16.895Z,13.70
2018-02-06T12:19:16.891Z,13.60
2018-02-06T12:20:16.893Z,13.50
2018-02-06T12:21:16.895Z,12.60
2018-02-06T12:22:16.903Z,13.50
2018-02-06T12:23:16.904Z,13.90
2018-02-06T12:24:16.911Z,14.00
2018-02-06T12:25:16.915Z,13.70
2018-02-06T12:26:16.911Z,14.50
2018-02-06T12:27:16.929Z,13.60
2018-02-06T12:28:16.919Z,14.30
2018-02-06T12:29:17.571Z,13.30
2018-02-06T12:30:16.920Z,13.90
2018-02-06T12:31:16.933Z,14.50
2018-02-06T12:32:16.936Z,14.60
2018-02-06T12:33:16.931Z,14.40
2018-02-06T12:34:16.938Z,13.80
2018-02-06T12:35:16.941Z,14.10
2018-02-06T12:36:16.939Z,13.80
2018-02-06T12:37:16.943Z,13.50
2018-02-06T12:38:16.946Z,14.50
2018-02-06T12:39:16.954Z,13.90
2018-02-06T12:40:16.952Z,14.30
2018-02-06T12:41:16.955Z,14.70
2018-02-06T12:42:16.961Z,13.10
2018-02-06T12:43:16.959Z,13.90
2018-02-06T12:44:16.963Z,13.50
2018-02-06T12:45:16.968Z,14.40
2018-02-06T12:46:16.972Z,13.90
2018-02-06T12:47:16.970Z,14.30
2018-02-06T12:48:16.972Z,13.60
2018-02-06T12:49:16.974Z,13.70
2018-02-06T12:50:16.976Z,13.50
2018-02-06T12:51:16.983Z,13.80
2018-02-06T12:52:17.002Z,13.80
2018-02-06T12:53:16.985Z,13.30
2018-02-06T12:54:16.988Z,13.60
2018-02-06T12:55:16.988Z,13.20
2018-02-06T12:56:16.994Z,13.10
2018-02-06T12:57:17.005Z,12.80
2018-02-06T12:58:17.003Z,14.10
2018-02-06T12:59:17.005Z,13.40
2018-02-06T13:00:17.004Z,12.70
2018-02-06T13:01:17.009Z,14.20
2018-02-06T13:02:17.009Z,13.60
2018-02-06T13:03:17.013Z,13.70
2018-02-06T13:04:17.019Z,13.50
2018-02-06T13:05:17.024Z,14.70
2018-02-06T13:06:17.025Z,13.70
2018-02-06T13:07:17.020Z,13.60
2018-02-06T13:08:17.035Z,13.00
2018-02-06T13:09:17.031Z,13.30
2018-02-06T13:10:17.032Z,12.80
2018-02-06T13:11:17.035Z,13.50
2018-02-06T13:12:17.039Z,12.90
2018-02-06T13:13:17.040Z,13.20
2018-02-06T13:14:17.043Z,13.10
2018-02-06T13:15:17.052Z,13.30
2018-02-06T13:16:17.051Z,13.60
2018-02-06T13:17:17.045Z,13.30
2018-02-06T13:18:17.052Z,13.70
2018-02-06T13:19:17.050Z,13.20
2018-02-06T13:20:17.056Z,13.60
2018-02-06T13:21:17.051Z,14.00
2018-02-06T13:22:17.061Z,13.40
2018-02-06T13:23:17.060Z,13.10
2018-02-06T13:24:17.062Z,13.30
2018-02-06T13:25:17.064Z,13.60
2018-02-06T13:26:17.075Z,13.30
2018-02-06T13:27:17.071Z,12.80
2018-02-06T13:28:17.070Z,13.20
2018-02-06T13:29:17.080Z,13.60
2018-02-06T13:30:17.079Z,14.10
2018-02-06T13:31:17.078Z,13.70
2018-02-06T13:32:17.103Z,13.50
2018-02-06T13:33:17.090Z,13.70
2018-02-06T13:34:17.095Z,12.70
2018-02-06T13:35:17.089Z,13.70
2018-02-06T13:36:18.078Z,13.90
2018-02-06T13:37:17.096Z,13.80
2018-02-06T13:38:17.093Z,14.10
2018-02-06T13:39:17.123Z,13.90
2018-02-06T13:40:17.099Z,13.00
2018-02-06T13:41:17.102Z,12.80
2018-02-06T13:42:17.108Z,13.50
2018-02-06T13:43:17.108Z,13.00
2018-02-06T13:44:17.109Z,12.90
2018-02-06T13:45:17.112Z,14.00
2018-02-06T13:46:17.114Z,13.10
2018-02-06T13:47:17.112Z,13.40
2018-02-06T13:48:17.126Z,12.80
2018-02-06T13:49:17.125Z,13.50
2018-02-06T13:50:17.125Z,13.10
2018-02-06T13:51:17.124Z,12.80
2018-02-06T13:52:17.126Z,13.10
2018-02-06T13:53:17.134Z,12.40
2018-02-06T13:54:17.135Z,12.90
2018-02-06T13:55:17.132Z,13.40
2018-02-06T13:56:17.138Z,13.00
2018-02-06T13:57:17.140Z,13.30
2018-02-06T13:58:17.143Z,13.70
2018-02-06T13:59:17.148Z,13.30
2018-02-06T14:00:17.148Z,12.20
2018-02-06T14:01:17.146Z,13.80
2018-02-06T14:02:17.147Z,15.40
2018-02-06T14:03:17.150Z,15.10
2018-02-06T14:04:17.153Z,14.00
2018-02-06T14:05:17.157Z,13.20
2018-02-06T14:06:17.153Z,12.60
2018-02-06T14:07:17.164Z,13.00
2018-02-06T14:08:17.161Z,13.20
2018-02-06T14:09:17.171Z,13.60
2018-02-06T14:10:17.178Z,12.80
2018-02-06T14:11:17.166Z,14.20
2018-02-06T14:12:17.169Z,13.80
2018-02-06T14:13:17.167Z,13.00
2018-02-06T14:14:17.180Z,13.30
2018-02-06T14:15:17.176Z,13.80
2018-02-06T14:16:17.173Z,13.50
2018-02-06T14:17:17.178Z,13.90
2018-02-06T14:18:17.181Z,13.70
2018-02-06T14:19:17.178Z,13.30
2018-02-06T14:20:17.183Z,14.20
2018-02-06T14:21:17.184Z,14.50
2018-02-06T14:22:17.191Z,13.20
2018-02-06T14:23:17.185Z,13.30
2018-02-06T14:24:17.200Z,14.60
2018-02-06T14:25:17.186Z,13.80
2018-02-06T14:26:17.188Z,14.70
2018-02-06T14:27:17.194Z,13.40
2018-02-06T14:28:17.197Z,13.50
2018-02-06T14:29:17.199Z,13.30
2018-02-06T14:30:17.203Z,13.40
2018-02-06T14:31:17.200Z,13.40
2018-02-06T14:32:17.204Z,14.10
2018-02-06T14:33:17.208Z,13.90
2018-02-06T14:34:17.238Z,14.20
2018-02-06T14:35:17.203Z,15.80
2018-02-06T14:36:17.206Z,13.50
2018-02-06T14:37:17.211Z,13.60
2018-02-06T14:38:17.212Z,15.10
2018-02-06T14:39:17.210Z,13.50
2018-02-06T14:40:17.212Z,13.50
2018-02-06T14:41:17.216Z,13.40
2018-02-06T14:42:17.215Z,13.10
2018-02-06T14:43:17.218Z,14.20
2018-02-06T14:44:17.218Z,13.80
2018-02-06T14:45:17.220Z,13.30
2018-02-06T14:46:17.219Z,14.10
2018-02-06T14:47:17.225Z,14.20
2018-02-06T14:48:17.224Z,12.70
2018-02-06T14:49:17.231Z,13.40